Search METAR Data

METAR Data for LHSM:

LHSM 241115Z AUTO 34012KT 320V020 9999 BKN021 07/04 Q1007 NOSIG